sensor_id;sensor_type;location;lat;lon;timestamp;pressure;altitude;pressure_sealevel;temperature;humidity
67545;BME280;54380;47.770;11.150;2023-04-03T00:01:17;95306.19;;;6.48;62.62
67545;BME280;54380;47.770;11.150;2023-04-03T00:03:44;95305.34;;;6.47;62.42
67545;BME280;54380;47.770;11.150;2023-04-03T00:06:12;95305.59;;;6.46;62.46
67545;BME280;54380;47.770;11.150;2023-04-03T00:08:49;95297.50;;;6.47;62.50
67545;BME280;54380;47.770;11.150;2023-04-03T00:11:16;95296.94;;;6.45;62.48
67545;BME280;54380;47.770;11.150;2023-04-03T00:13:44;95295.31;;;6.44;62.59
67545;BME280;54380;47.770;11.150;2023-04-03T00:16:13;95295.53;;;6.43;62.57
67545;BME280;54380;47.770;11.150;2023-04-03T00:18:41;95305.19;;;6.42;62.46
67545;BME280;54380;47.770;11.150;2023-04-03T00:21:10;95299.94;;;6.42;62.55
67545;BME280;54380;47.770;11.150;2023-04-03T00:23:38;95302.56;;;6.42;62.22
67545;BME280;54380;47.770;11.150;2023-04-03T00:26:05;95294.94;;;6.41;62.38
67545;BME280;54380;47.770;11.150;2023-04-03T00:28:32;95304.81;;;6.38;62.27
67545;BME280;54380;47.770;11.150;2023-04-03T00:30:59;95305.03;;;6.37;62.55
67545;BME280;54380;47.770;11.150;2023-04-03T00:33:29;95298.97;;;6.36;62.12
67545;BME280;54380;47.770;11.150;2023-04-03T00:35:56;95299.66;;;6.32;62.04
67545;BME280;54380;47.770;11.150;2023-04-03T00:38:24;95297.41;;;6.29;62.48
67545;BME280;54380;47.770;11.150;2023-04-03T00:40:51;95298.66;;;6.26;62.38
67545;BME280;54380;47.770;11.150;2023-04-03T00:43:20;95295.88;;;6.21;62.36
67545;BME280;54380;47.770;11.150;2023-04-03T00:45:49;95297.69;;;6.21;62.32
67545;BME280;54380;47.770;11.150;2023-04-03T00:48:20;95301.34;;;6.20;62.40
67545;BME280;54380;47.770;11.150;2023-04-03T00:50:50;95301.34;;;6.20;62.65
67545;BME280;54380;47.770;11.150;2023-04-03T00:53:21;95304.94;;;6.19;62.54
67545;BME280;54380;47.770;11.150;2023-04-03T00:55:50;95294.69;;;6.17;62.50
67545;BME280;54380;47.770;11.150;2023-04-03T00:58:20;95300.94;;;6.16;62.56
67545;BME280;54380;47.770;11.150;2023-04-03T01:00:50;95299.78;;;6.12;62.68
67545;BME280;54380;47.770;11.150;2023-04-03T01:03:23;95303.97;;;6.13;62.24
67545;BME280;54380;47.770;11.150;2023-04-03T01:05:52;95298.97;;;6.11;62.75
67545;BME280;54380;47.770;11.150;2023-04-03T01:08:19;95293.94;;;6.10;62.19
67545;BME280;54380;47.770;11.150;2023-04-03T01:10:48;95293.94;;;6.10;62.70
67545;BME280;54380;47.770;11.150;2023-04-03T01:13:22;95292.34;;;6.09;62.13
67545;BME280;54380;47.770;11.150;2023-04-03T01:15:49;95294.97;;;6.09;62.28
67545;BME280;54380;47.770;11.150;2023-04-03T01:18:16;95296.97;;;6.07;62.54
67545;BME280;54380;47.770;11.150;2023-04-03T01:21:36;95294.34;;;6.07;62.20
67545;BME280;54380;47.770;11.150;2023-04-03T01:24:17;95294.97;;;6.02;62.16
67545;BME280;54380;47.770;11.150;2023-04-03T01:26:49;95296.22;;;6.00;62.66
67545;BME280;54380;47.770;11.150;2023-04-03T01:29:17;95297.84;;;6.01;62.66
67545;BME280;54380;47.770;11.150;2023-04-03T01:31:49;95288.16;;;6.01;62.47
67545;BME280;54380;47.770;11.150;2023-04-03T01:34:16;95292.59;;;6.01;62.22
67545;BME280;54380;47.770;11.150;2023-04-03T01:36:43;95293.59;;;6.00;62.35
67545;BME280;54380;47.770;11.150;2023-04-03T01:39:11;95298.22;;;5.98;62.79
67545;BME280;54380;47.770;11.150;2023-04-03T01:41:38;95289.56;;;5.97;62.48
67545;BME280;54380;47.770;11.150;2023-04-03T01:44:14;95298.03;;;5.99;62.29
67545;BME280;54380;47.770;11.150;2023-04-03T01:46:41;95294.38;;;6.00;62.47
67545;BME280;54380;47.770;11.150;2023-04-03T01:49:10;95290.97;;;6.00;62.11
67545;BME280;54380;47.770;11.150;2023-04-03T01:51:37;95286.94;;;5.97;62.13
67545;BME280;54380;47.770;11.150;2023-04-03T01:54:05;95279.88;;;5.98;62.15
67545;BME280;54380;47.770;11.150;2023-04-03T01:56:32;95278.09;;;5.98;62.54
67545;BME280;54380;47.770;11.150;2023-04-03T01:58:58;95278.88;;;5.99;62.19
67545;BME280;54380;47.770;11.150;2023-04-03T02:01:25;95280.50;;;6.00;62.45
67545;BME280;54380;47.770;11.150;2023-04-03T02:03:52;95282.13;;;6.01;62.67
67545;BME280;54380;47.770;11.150;2023-04-03T02:06:21;95282.13;;;6.01;62.19
67545;BME280;54380;47.770;11.150;2023-04-03T02:08:47;95277.88;;;6.00;62.04
67545;BME280;54380;47.770;11.150;2023-04-03T02:11:14;95280.50;;;6.00;62.04
67545;BME280;54380;47.770;11.150;2023-04-03T02:13:41;95280.72;;;5.98;62.07
67545;BME280;54380;47.770;11.150;2023-04-03T02:16:09;95283.34;;;5.98;61.96
67545;BME280;54380;47.770;11.150;2023-04-03T02:18:36;95275.66;;;5.97;62.27
67545;BME280;54380;47.770;11.150;2023-04-03T02:21:05;95277.50;;;5.96;62.20
67545;BME280;54380;47.770;11.150;2023-04-03T02:23:34;95272.47;;;5.94;62.39
67545;BME280;54380;47.770;11.150;2023-04-03T02:26:08;95275.06;;;5.94;62.42
67545;BME280;54380;47.770;11.150;2023-04-03T02:28:35;95271.66;;;5.94;62.08
67545;BME280;54380;47.770;11.150;2023-04-03T02:31:02;95278.53;;;5.95;62.19
67545;BME280;54380;47.770;11.150;2023-04-03T02:33:30;95274.28;;;5.94;62.09
67545;BME280;54380;47.770;11.150;2023-04-03T02:35:58;95264.78;;;5.93;62.47
67545;BME280;54380;47.770;11.150;2023-04-03T02:38:25;95268.25;;;5.93;61.88
67545;BME280;54380;47.770;11.150;2023-04-03T02:40:59;95259.56;;;5.93;62.06
67545;BME280;54380;47.770;11.150;2023-04-03T02:43:26;95264.38;;;5.89;61.95
67545;BME280;54380;47.770;11.150;2023-04-03T02:45:53;95269.63;;;5.89;61.78
67545;BME280;54380;47.770;11.150;2023-04-03T02:48:21;95267.25;;;5.88;62.38
67545;BME280;54380;47.770;11.150;2023-04-03T02:50:49;95271.09;;;5.85;61.71
67545;BME280;54380;47.770;11.150;2023-04-03T02:53:16;95273.47;;;5.87;61.99
67545;BME280;54380;47.770;11.150;2023-04-03T02:55:43;95270.66;;;5.88;61.81
67545;BME280;54380;47.770;11.150;2023-04-03T02:58:14;95268.03;;;5.88;61.63
67545;BME280;54380;47.770;11.150;2023-04-03T03:00:42;95272.91;;;5.85;62.34
67545;BME280;54380;47.770;11.150;2023-04-03T03:03:08;95279.13;;;5.84;62.24
67545;BME280;54380;47.770;11.150;2023-04-03T03:05:35;95280.38;;;5.81;62.01
67545;BME280;54380;47.770;11.150;2023-04-03T03:08:02;95277.75;;;5.81;62.30
67545;BME280;54380;47.770;11.150;2023-04-03T03:10:29;95278.97;;;5.79;61.51
67545;BME280;54380;47.770;11.150;2023-04-03T03:12:56;95284.19;;;5.79;62.08
67545;BME280;54380;47.770;11.150;2023-04-03T03:15:24;95275.34;;;5.80;62.31
67545;BME280;54380;47.770;11.150;2023-04-03T03:17:51;95279.75;;;5.79;61.86
67545;BME280;54380;47.770;11.150;2023-04-03T03:20:19;95277.00;;;5.74;62.07
67545;BME280;54380;47.770;11.150;2023-04-03T03:22:46;95291.50;;;5.70;61.91
67545;BME280;54380;47.770;11.150;2023-04-03T03:25:13;95280.25;;;5.69;62.19
67545;BME280;54380;47.770;11.150;2023-04-03T03:27:40;95271.41;;;5.64;62.42
67545;BME280;54380;47.770;11.150;2023-04-03T03:30:07;95279.66;;;5.61;61.91
67545;BME280;54380;47.770;11.150;2023-04-03T03:32:35;95282.50;;;5.59;62.33
67545;BME280;54380;47.770;11.150;2023-04-03T03:35:03;95279.09;;;5.59;62.32
67545;BME280;54380;47.770;11.150;2023-04-03T03:37:29;95284.75;;;5.56;62.55
67545;BME280;54380;47.770;11.150;2023-04-03T03:39:56;95281.31;;;5.55;62.21
67545;BME280;54380;47.770;11.150;2023-04-03T03:42:23;95282.53;;;5.53;62.68
67545;BME280;54380;47.770;11.150;2023-04-03T03:44:50;95278.72;;;5.48;62.84
67545;BME280;54380;47.770;11.150;2023-04-03T03:47:18;95284.56;;;5.50;62.39
67545;BME280;54380;47.770;11.150;2023-04-03T03:49:47;95281.53;;;5.54;62.27
67545;BME280;54380;47.770;11.150;2023-04-03T03:52:15;95276.91;;;5.49;62.68
67545;BME280;54380;47.770;11.150;2023-04-03T03:54:42;95281.53;;;5.47;62.82
67545;BME280;54380;47.770;11.150;2023-04-03T03:57:09;95282.16;;;5.42;62.80
67545;BME280;54380;47.770;11.150;2023-04-03T03:59:36;95277.75;;;5.43;62.30
67545;BME280;54380;47.770;11.150;2023-04-03T04:02:03;95277.75;;;5.43;62.78
67545;BME280;54380;47.770;11.150;2023-04-03T04:04:31;95275.50;;;5.46;62.77
67545;BME280;54380;47.770;11.150;2023-04-03T04:07:00;95274.91;;;5.44;61.98
67545;BME280;54380;47.770;11.150;2023-04-03T04:09:27;95277.16;;;5.41;61.86
67545;BME280;54380;47.770;11.150;2023-04-03T04:11:54;95277.34;;;5.39;61.61
67545;BME280;54380;47.770;11.150;2023-04-03T04:14:21;95277.75;;;5.36;61.48
67545;BME280;54380;47.770;11.150;2023-04-03T04:16:49;95281.22;;;5.30;61.45
67545;BME280;54380;47.770;11.150;2023-04-03T04:19:20;95279.03;;;5.27;62.17
67545;BME280;54380;47.770;11.150;2023-04-03T04:21:49;95273.19;;;5.25;61.61
67545;BME280;54380;47.770;11.150;2023-04-03T04:24:18;95281.44;;;5.22;61.65
67545;BME280;54380;47.770;11.150;2023-04-03T04:26:46;95278.84;;;5.22;61.75
67545;BME280;54380;47.770;11.150;2023-04-03T04:29:15;95285.06;;;5.21;62.71
67545;BME280;54380;47.770;11.150;2023-04-03T04:31:45;95280.03;;;5.19;62.78
67545;BME280;54380;47.770;11.150;2023-04-03T04:34:12;95285.66;;;5.23;62.63
67545;BME280;54380;47.770;11.150;2023-04-03T04:36:39;95286.88;;;5.20;62.57
67545;BME280;54380;47.770;11.150;2023-04-03T04:39:07;95282.84;;;5.18;62.49
67545;BME280;54380;47.770;11.150;2023-04-03T04:41:35;95284.66;;;5.24;62.97
67545;BME280;54380;47.770;11.150;2023-04-03T04:44:04;95286.25;;;5.25;62.27
67545;BME280;54380;47.770;11.150;2023-04-03T04:46:31;95281.44;;;5.22;61.62
67545;BME280;54380;47.770;11.150;2023-04-03T04:48:59;95284.25;;;5.20;61.94
67545;BME280;54380;47.770;11.150;2023-04-03T04:51:28;95291.31;;;5.20;62.33
67545;BME280;54380;47.770;11.150;2023-04-03T04:54:04;95283.88;;;5.17;61.99
67545;BME280;54380;47.770;11.150;2023-04-03T04:56:31;95298.97;;;5.15;62.63
67545;BME280;54380;47.770;11.150;2023-04-03T04:59:00;95300.38;;;5.17;62.86
67545;BME280;54380;47.770;11.150;2023-04-03T05:01:27;95287.50;;;5.16;62.43
67545;BME280;54380;47.770;11.150;2023-04-03T05:04:02;95298.97;;;5.15;62.55
67545;BME280;54380;47.770;11.150;2023-04-03T05:06:29;95304.03;;;5.16;62.76
67545;BME280;54380;47.770;11.150;2023-04-03T05:09:00;95299.78;;;5.15;62.17
67545;BME280;54380;47.770;11.150;2023-04-03T05:11:28;95299.16;;;5.13;62.90
67545;BME280;54380;47.770;11.150;2023-04-03T05:13:55;95299.16;;;5.13;62.30
67545;BME280;54380;47.770;11.150;2023-04-03T05:16:25;95301.78;;;5.13;62.30
67545;BME280;54380;47.770;11.150;2023-04-03T05:18:52;95308.84;;;5.13;62.13
67545;BME280;54380;47.770;11.150;2023-04-03T05:21:21;95301.81;;;5.06;62.03
67545;BME280;54380;47.770;11.150;2023-04-03T05:23:50;95312.69;;;5.03;61.46
67545;BME280;54380;47.770;11.150;2023-04-03T05:26:18;95314.09;;;4.99;61.81
67545;BME280;54380;47.770;11.150;2023-04-03T05:28:47;95308.25;;;4.97;62.51
67545;BME280;54380;47.770;11.150;2023-04-03T05:31:14;95311.50;;;4.99;62.54
67545;BME280;54380;47.770;11.150;2023-04-03T05:33:42;95306.84;;;4.95;62.78
67545;BME280;54380;47.770;11.150;2023-04-03T05:36:15;95309.28;;;4.96;62.96
67545;BME280;54380;47.770;11.150;2023-04-03T05:38:44;95314.31;;;4.98;62.33
67545;BME280;54380;47.770;11.150;2023-04-03T05:41:12;95314.91;;;5.00;62.61
67545;BME280;54380;47.770;11.150;2023-04-03T05:43:40;95315.31;;;5.03;62.08
67545;BME280;54380;47.770;11.150;2023-04-03T05:46:10;95315.31;;;5.03;61.84
67545;BME280;54380;47.770;11.150;2023-04-03T05:48:38;95312.28;;;5.06;62.77
67545;BME280;54380;47.770;11.150;2023-04-03T05:51:09;95318.91;;;5.09;62.54
67545;BME280;54380;47.770;11.150;2023-04-03T05:53:40;95310.84;;;5.11;62.28
67545;BME280;54380;47.770;11.150;2023-04-03T05:56:08;95311.69;;;5.11;61.96
67545;BME280;54380;47.770;11.150;2023-04-03T05:58:38;95308.03;;;5.12;62.27
67545;BME280;54380;47.770;11.150;2023-04-03T06:01:05;95310.25;;;5.15;62.65
67545;BME280;54380;47.770;11.150;2023-04-03T06:03:32;95312.25;;;5.20;62.66
67545;BME280;54380;47.770;11.150;2023-04-03T06:06:04;95305.81;;;5.22;61.91
67545;BME280;54380;47.770;11.150;2023-04-03T06:08:32;95311.63;;;5.24;61.88
67545;BME280;54380;47.770;11.150;2023-04-03T06:11:01;95317.44;;;5.26;61.65
67545;BME280;54380;47.770;11.150;2023-04-03T06:13:29;95318.47;;;5.25;61.66
67545;BME280;54380;47.770;11.150;2023-04-03T06:15:56;95316.47;;;5.27;61.82
67545;BME280;54380;47.770;11.150;2023-04-03T06:18:23;95319.69;;;5.30;62.16
67545;BME280;54380;47.770;11.150;2023-04-03T06:20:50;95318.84;;;5.29;62.29
67545;BME280;54380;47.770;11.150;2023-04-03T06:23:18;95320.25;;;5.32;62.20
67545;BME280;54380;47.770;11.150;2023-04-03T06:25:46;95327.13;;;5.33;61.66
67545;BME280;54380;47.770;11.150;2023-04-03T06:28:14;95314.22;;;5.31;61.72
67545;BME280;54380;47.770;11.150;2023-04-03T06:30:40;95324.91;;;5.30;62.32
67545;BME280;54380;47.770;11.150;2023-04-03T06:33:07;95326.31;;;5.32;62.20
67545;BME280;54380;47.770;11.150;2023-04-03T06:35:34;95328.72;;;5.34;62.27
67545;BME280;54380;47.770;11.150;2023-04-03T06:38:02;95323.06;;;5.37;62.27
67545;BME280;54380;47.770;11.150;2023-04-03T06:40:34;95323.88;;;5.37;61.70
67545;BME280;54380;47.770;11.150;2023-04-03T06:43:02;95331.13;;;5.35;62.04
67545;BME280;54380;47.770;11.150;2023-04-03T06:45:29;95331.13;;;5.35;62.28
67545;BME280;54380;47.770;11.150;2023-04-03T06:47:56;95331.56;;;5.32;62.36
67545;BME280;54380;47.770;11.150;2023-04-03T06:50:23;95330.13;;;5.36;62.17
67545;BME280;54380;47.770;11.150;2023-04-03T06:52:50;95332.91;;;5.41;61.92
67545;BME280;54380;47.770;11.150;2023-04-03T06:55:17;95326.09;;;5.40;62.04
67545;BME280;54380;47.770;11.150;2023-04-03T06:57:44;95337.16;;;5.36;61.90
67545;BME280;54380;47.770;11.150;2023-04-03T07:00:16;95339.59;;;5.37;61.56
67545;BME280;54380;47.770;11.150;2023-04-03T07:02:43;95338.56;;;5.38;62.16
67545;BME280;54380;47.770;11.150;2023-04-03T07:05:10;95340.78;;;5.41;62.03
67545;BME280;54380;47.770;11.150;2023-04-03T07:07:36;95347.22;;;5.39;62.00
67545;BME280;54380;47.770;11.150;2023-04-03T07:10:05;95351.66;;;5.38;61.54
67545;BME280;54380;47.770;11.150;2023-04-03T07:12:32;95351.47;;;5.40;61.23
67545;BME280;54380;47.770;11.150;2023-04-03T07:14:59;95354.09;;;5.40;60.98
67545;BME280;54380;47.770;11.150;2023-04-03T07:17:28;95357.09;;;5.37;61.12
67545;BME280;54380;47.770;11.150;2023-04-03T07:19:54;95359.31;;;5.33;61.03
67545;BME280;54380;47.770;11.150;2023-04-03T07:22:21;95359.13;;;5.35;61.14
67545;BME280;54380;47.770;11.150;2023-04-03T07:24:48;95355.31;;;5.37;61.55
67545;BME280;54380;47.770;11.150;2023-04-03T07:27:15;95360.13;;;5.40;61.79
67545;BME280;54380;47.770;11.150;2023-04-03T07:29:42;95356.28;;;5.36;61.16
67545;BME280;54380;47.770;11.150;2023-04-03T07:32:09;95366.38;;;5.33;61.17
67545;BME280;54380;47.770;11.150;2023-04-03T07:34:38;95361.34;;;5.31;61.29
67545;BME280;54380;47.770;11.150;2023-04-03T07:37:04;95367.78;;;5.35;61.26
67545;BME280;54380;47.770;11.150;2023-04-03T07:39:33;95374.63;;;5.36;61.34
67545;BME280;54380;47.770;11.150;2023-04-03T07:41:59;95368.97;;;5.39;61.25
67545;BME280;54380;47.770;11.150;2023-04-03T07:44:27;95369.38;;;5.43;61.45
67545;BME280;54380;47.770;11.150;2023-04-03T07:46:54;95365.53;;;5.45;60.92
67545;BME280;54380;47.770;11.150;2023-04-03T07:49:24;95373.41;;;5.45;60.58
67545;BME280;54380;47.770;11.150;2023-04-03T07:51:52;95369.78;;;5.40;60.52
67545;BME280;54380;47.770;11.150;2023-04-03T07:54:19;95376.81;;;5.39;60.61
67545;BME280;54380;47.770;11.150;2023-04-03T07:56:46;95378.22;;;5.42;61.41
67545;BME280;54380;47.770;11.150;2023-04-03T07:59:13;95376.81;;;5.46;61.82
67545;BME280;54380;47.770;11.150;2023-04-03T08:01:40;95376.97;;;5.58;61.26
67545;BME280;54380;47.770;11.150;2023-04-03T08:04:07;95376.97;;;5.64;61.13
67545;BME280;54380;47.770;11.150;2023-04-03T08:06:34;95382.16;;;5.71;60.98
67545;BME280;54380;47.770;11.150;2023-04-03T08:09:14;95375.69;;;5.80;61.32
67545;BME280;54380;47.770;11.150;2023-04-03T08:11:41;95374.47;;;5.83;60.97
67545;BME280;54380;47.770;11.150;2023-04-03T08:14:09;95370.22;;;5.82;60.50
67545;BME280;54380;47.770;11.150;2023-04-03T08:16:43;95377.88;;;5.83;60.61
67545;BME280;54380;47.770;11.150;2023-04-03T08:19:10;95378.69;;;5.84;60.74
67545;BME280;54380;47.770;11.150;2023-04-03T08:21:51;95382.50;;;5.88;60.60
67545;BME280;54380;47.770;11.150;2023-04-03T08:24:19;95382.88;;;5.91;60.24
67545;BME280;54380;47.770;11.150;2023-04-03T08:26:46;95378.88;;;5.96;60.58
67545;BME280;54380;47.770;11.150;2023-04-03T08:29:13;95379.47;;;5.98;60.51
67545;BME280;54380;47.770;11.150;2023-04-03T08:31:40;95382.06;;;5.98;60.11
67545;BME280;54380;47.770;11.150;2023-04-03T08:34:07;95384.13;;;5.96;59.70
67545;BME280;54380;47.770;11.150;2023-04-03T08:36:35;95383.34;;;5.95;59.86
67545;BME280;54380;47.770;11.150;2023-04-03T08:39:03;95381.50;;;5.96;59.75
67545;BME280;54380;47.770;11.150;2023-04-03T08:41:34;95378.69;;;5.90;58.92
67545;BME280;54380;47.770;11.150;2023-04-03T08:44:14;95383.31;;;5.88;59.01
67545;BME280;54380;47.770;11.150;2023-04-03T08:46:51;95385.75;;;5.83;59.54
67545;BME280;54380;47.770;11.150;2023-04-03T08:49:27;95386.72;;;5.89;59.86
67545;BME280;54380;47.770;11.150;2023-04-03T08:51:55;95386.16;;;5.93;60.03
67545;BME280;54380;47.770;11.150;2023-04-03T08:54:28;95389.53;;;6.01;60.39
67545;BME280;54380;47.770;11.150;2023-04-03T08:57:02;95390.94;;;6.03;59.96
67545;BME280;54380;47.770;11.150;2023-04-03T08:59:33;95390.91;;;6.10;59.97
67545;BME280;54380;47.770;11.150;2023-04-03T09:02:04;95388.88;;;6.12;59.48
67545;BME280;54380;47.770;11.150;2023-04-03T09:04:43;95390.47;;;6.13;59.34
67545;BME280;54380;47.770;11.150;2023-04-03T09:07:16;95383.19;;;6.22;59.28
67545;BME280;54380;47.770;11.150;2023-04-03T09:10:00;95390.84;;;6.23;59.11
67545;BME280;54380;47.770;11.150;2023-04-03T09:12:37;95388.97;;;6.30;58.84
67545;BME280;54380;47.770;11.150;2023-04-03T09:15:21;95391.34;;;6.38;59.35
67545;BME280;54380;47.770;11.150;2023-04-03T09:18:05;95389.28;;;6.47;57.57
67545;BME280;54380;47.770;11.150;2023-04-03T09:20:41;95386.25;;;6.50;57.64
67545;BME280;54380;47.770;11.150;2023-04-03T09:23:22;95392.47;;;6.56;58.56
67545;BME280;54380;47.770;11.150;2023-04-03T09:26:07;95381.06;;;6.69;58.26
67545;BME280;54380;47.770;11.150;2023-04-03T09:28:39;95382.84;;;6.75;57.04
67545;BME280;54380;47.770;11.150;2023-04-03T09:31:20;95387.28;;;6.74;57.21
67545;BME280;54380;47.770;11.150;2023-04-03T09:33:50;95389.91;;;6.74;56.92
67545;BME280;54380;47.770;11.150;2023-04-03T09:36:42;95384.44;;;6.76;56.02
67545;BME280;54380;47.770;11.150;2023-04-03T09:39:27;95383.03;;;6.73;55.96
67545;BME280;54380;47.770;11.150;2023-04-03T09:42:16;95387.69;;;6.71;55.84
67545;BME280;54380;47.770;11.150;2023-04-03T10:00:53;95384.81;;;7.04;56.19
67545;BME280;54380;47.770;11.150;2023-04-03T10:03:24;95381.31;;;7.11;56.05
67545;BME280;54380;47.770;11.150;2023-04-03T10:13:04;95378.16;;;7.02;54.61
67545;BME280;54380;47.770;11.150;2023-04-03T10:15:36;95376.56;;;7.01;55.79
67545;BME280;54380;47.770;11.150;2023-04-03T10:18:15;95382.72;;;7.13;55.14
67545;BME280;54380;47.770;11.150;2023-04-03T10:20:51;95374.69;;;7.26;54.54
67545;BME280;54380;47.770;11.150;2023-04-03T10:23:26;95374.66;;;7.33;55.02
67545;BME280;54380;47.770;11.150;2023-04-03T10:26:03;95381.44;;;7.41;55.02
67545;BME280;54380;47.770;11.150;2023-04-03T10:28:42;95369.72;;;7.43;54.23
67545;BME280;54380;47.770;11.150;2023-04-03T10:31:14;95376.50;;;7.51;55.36
67545;BME280;54380;47.770;11.150;2023-04-03T10:33:56;95371.69;;;7.66;55.39
67545;BME280;54380;47.770;11.150;2023-04-03T10:36:36;95372.09;;;7.82;54.94
67545;BME280;54380;47.770;11.150;2023-04-03T10:39:13;95370.56;;;7.93;54.61
67545;BME280;54380;47.770;11.150;2023-04-03T10:41:50;95377.91;;;8.02;54.68
67545;BME280;54380;47.770;11.150;2023-04-03T10:44:31;95377.56;;;7.99;52.98
67545;BME280;54380;47.770;11.150;2023-04-03T10:47:06;95377.78;;;7.97;53.66
67545;BME280;54380;47.770;11.150;2023-04-03T10:49:46;95373.09;;;7.99;52.89
67545;BME280;54380;47.770;11.150;2023-04-03T10:52:30;95372.47;;;8.16;54.04
67545;BME280;54380;47.770;11.150;2023-04-03T10:55:16;95374.63;;;8.37;53.52
67545;BME280;54380;47.770;11.150;2023-04-03T10:57:49;95362.47;;;8.54;53.81
67545;BME280;54380;47.770;11.150;2023-04-03T11:00:20;95363.19;;;8.62;50.87
67545;BME280;54380;47.770;11.150;2023-04-03T11:02:51;95360.50;;;8.50;50.65
67545;BME280;54380;47.770;11.150;2023-04-03T11:05:30;95371.94;;;8.44;51.84
67545;BME280;54380;47.770;11.150;2023-04-03T11:08:02;95366.34;;;8.40;50.17
67545;BME280;54380;47.770;11.150;2023-04-03T11:10:36;95369.00;;;8.33;51.04
67545;BME280;54380;47.770;11.150;2023-04-03T11:13:10;95366.59;;;8.32;51.77
67545;BME280;54380;47.770;11.150;2023-04-03T11:15:38;95360.53;;;8.31;51.62
67545;BME280;54380;47.770;11.150;2023-04-03T11:18:11;95365.25;;;8.29;52.38
67545;BME280;54380;47.770;11.150;2023-04-03T11:20:53;95359.03;;;8.24;51.53
67545;BME280;54380;47.770;11.150;2023-04-03T11:23:25;95351.44;;;8.16;51.65
67545;BME280;54380;47.770;11.150;2023-04-03T11:26:07;95353.16;;;8.10;51.98
67545;BME280;54380;47.770;11.150;2023-04-03T11:28:35;95346.97;;;8.04;51.77
67545;BME280;54380;47.770;11.150;2023-04-03T11:31:13;95347.53;;;8.06;52.40
67545;BME280;54380;47.770;11.150;2023-04-03T11:33:49;95346.50;;;8.07;52.63
67545;BME280;54380;47.770;11.150;2023-04-03T11:36:23;95347.69;;;8.11;50.96
67545;BME280;54380;47.770;11.150;2023-04-03T11:39:02;95347.88;;;8.10;50.66
67545;BME280;54380;47.770;11.150;2023-04-03T11:41:34;95349.94;;;8.08;49.17
67545;BME280;54380;47.770;11.150;2023-04-03T11:44:03;95346.16;;;8.04;50.78
67545;BME280;54380;47.770;11.150;2023-04-03T11:46:51;95345.13;;;8.05;50.14
67545;BME280;54380;47.770;11.150;2023-04-03T11:49:58;95341.09;;;8.02;50.60
67545;BME280;54380;47.770;11.150;2023-04-03T11:52:59;95333.81;;;8.04;51.63
67545;BME280;54380;47.770;11.150;2023-04-03T11:55:56;95340.34;;;8.13;51.40
67545;BME280;54380;47.770;11.150;2023-04-03T11:58:27;95340.34;;;8.13;51.48
67545;BME280;54380;47.770;11.150;2023-04-03T12:01:02;95338.75;;;8.12;52.12
67545;BME280;54380;47.770;11.150;2023-04-03T12:08:59;95339.19;;;8.09;49.62
67545;BME280;54380;47.770;11.150;2023-04-03T12:11:28;95334.59;;;8.05;50.35
67545;BME280;54380;47.770;11.150;2023-04-03T12:14:04;95335.41;;;8.05;51.10
67545;BME280;54380;47.770;11.150;2023-04-03T12:16:33;95328.69;;;8.09;52.01
67545;BME280;54380;47.770;11.150;2023-04-03T12:19:36;95334.88;;;8.15;51.91
67545;BME280;54380;47.770;11.150;2023-04-03T12:22:14;95331.53;;;8.08;50.97
67545;BME280;54380;47.770;11.150;2023-04-03T12:24:44;95326.84;;;8.10;49.98
67545;BME280;54380;47.770;11.150;2023-04-03T12:27:21;95334.44;;;8.18;50.94
67545;BME280;54380;47.770;11.150;2023-04-03T12:29:53;95329.88;;;8.25;51.16
67545;BME280;54380;47.770;11.150;2023-04-03T12:32:47;95328.91;;;8.38;51.28
67545;BME280;54380;47.770;11.150;2023-04-03T12:35:24;95328.81;;;8.45;47.55
67545;BME280;54380;47.770;11.150;2023-04-03T12:38:17;95327.88;;;8.39;45.06
67545;BME280;54380;47.770;11.150;2023-04-03T12:40:52;95328.16;;;8.19;46.65
67545;BME280;54380;47.770;11.150;2023-04-03T12:43:34;95334.78;;;8.22;49.82
67545;BME280;54380;47.770;11.150;2023-04-03T12:46:11;95328.84;;;8.26;49.18
67545;BME280;54380;47.770;11.150;2023-04-03T12:48:54;95337.44;;;8.22;49.99
67545;BME280;54380;47.770;11.150;2023-04-03T12:51:27;95336.84;;;8.20;50.12
67545;BME280;54380;47.770;11.150;2023-04-03T12:54:01;95329.16;;;8.18;51.48
67545;BME280;54380;47.770;11.150;2023-04-03T12:56:31;95328.50;;;8.23;51.30
67545;BME280;54380;47.770;11.150;2023-04-03T12:59:14;95328.97;;;8.20;51.51
67545;BME280;54380;47.770;11.150;2023-04-03T13:01:44;95334.22;;;8.20;52.44
67545;BME280;54380;47.770;11.150;2023-04-03T13:04:19;95331.47;;;8.26;51.36
67545;BME280;54380;47.770;11.150;2023-04-03T13:06:46;95342.56;;;8.28;51.40
67545;BME280;54380;47.770;11.150;2023-04-03T13:09:19;95341.53;;;8.18;50.61
67545;BME280;54380;47.770;11.150;2023-04-03T13:11:53;95351.09;;;8.12;50.21
67545;BME280;54380;47.770;11.150;2023-04-03T13:14:24;95337.38;;;8.10;50.76
67545;BME280;54380;47.770;11.150;2023-04-03T13:16:56;95332.34;;;8.08;51.33
67545;BME280;54380;47.770;11.150;2023-04-03T13:19:24;95333.28;;;8.14;50.90
67545;BME280;54380;47.770;11.150;2023-04-03T13:21:57;95340.75;;;8.29;50.82
67545;BME280;54380;47.770;11.150;2023-04-03T13:24:26;95340.19;;;8.27;50.27
67545;BME280;54380;47.770;11.150;2023-04-03T13:26:56;95338.13;;;8.29;50.84
67545;BME280;54380;47.770;11.150;2023-04-03T13:29:27;95343.06;;;8.37;50.99
67545;BME280;54380;47.770;11.150;2023-04-03T13:31:58;95332.47;;;8.44;50.69
67545;BME280;54380;47.770;11.150;2023-04-03T13:34:27;95330.31;;;8.52;50.54
67545;BME280;54380;47.770;11.150;2023-04-03T13:36:57;95334.94;;;8.39;49.25
67545;BME280;54380;47.770;11.150;2023-04-03T13:39:25;95332.78;;;8.35;50.37
67545;BME280;54380;47.770;11.150;2023-04-03T13:41:54;95335.63;;;8.34;48.82
67545;BME280;54380;47.770;11.150;2023-04-03T13:44:29;95340.88;;;8.34;49.42
67545;BME280;54380;47.770;11.150;2023-04-03T13:46:58;95342.91;;;8.32;49.49
67545;BME280;54380;47.770;11.150;2023-04-03T13:49:31;95332.41;;;8.32;48.72